Time;durP1;ratioP1;P1;durP2;ratioP2;P2;SDS_P1;SDS_P2;PMS_P1;PMS_P2;Temp;Humidity;BMP_temperature;BMP_pressure;BME280_temperature;BME280_humidity;BME280_pressure;Samples;Min_cycle;Max_cycle;Signal;HPM_P1;HPM_P2
2023/04/02 00:00:10;;;;;;;8.35;3.80;;;5.50;99.90;;;;;;4936638;29;20184;-73
2023/04/02 00:02:55;;;;;;;7.55;3.55;;;5.50;99.90;;;;;;4937195;29;20187;-74
2023/04/02 00:05:30;;;;;;;11.68;3.53;;;5.40;99.90;;;;;;4937453;29;20171;-75
2023/04/02 00:08:26;;;;;;;7.05;3.70;;;5.30;99.90;;;;;;4937387;29;20673;-74
2023/04/02 00:11:01;;;;;;;9.05;3.40;;;5.30;99.90;;;;;;4937208;29;20199;-76
2023/04/02 00:13:35;;;;;;;7.22;3.55;;;5.20;99.90;;;;;;4936348;29;20639;-73
2023/04/02 00:16:05;;;;;;;7.15;3.40;;;5.20;99.90;;;;;;4951650;29;20175;-73
2023/04/02 00:18:33;;;;;;;11.40;4.10;;;5.10;99.90;;;;;;4951197;28;20214;-74
2023/04/02 00:21:24;;;;;;;12.88;3.30;;;5.10;99.90;;;;;;4937063;29;20179;-77
2023/04/02 00:23:54;;;;;;;9.05;3.55;;;5.10;99.90;;;;;;4936509;29;20194;-77
2023/04/02 00:26:20;;;;;;;6.38;3.65;;;5.00;99.90;;;;;;4935076;29;20538;-74
2023/04/02 00:28:46;;;;;;;9.27;3.72;;;5.00;99.90;;;;;;4936257;29;20179;-74
2023/04/02 00:31:12;;;;;;;7.45;3.65;;;5.00;99.90;;;;;;4951883;29;20182;-73
2023/04/02 00:33:38;;;;;;;7.07;3.17;;;4.90;99.90;;;;;;4936273;29;20278;-73
2023/04/02 00:36:07;;;;;;;8.20;3.60;;;4.80;99.90;;;;;;4935043;29;20368;-73
2023/04/02 00:38:34;;;;;;;8.02;3.15;;;4.80;99.90;;;;;;4936297;29;20604;-73
2023/04/02 00:41:06;;;;;;;8.00;3.53;;;4.70;99.90;;;;;;4950928;29;20190;-74
2023/04/02 00:43:35;;;;;;;8.43;3.13;;;4.80;99.90;;;;;;4936655;29;20179;-75
2023/04/02 00:46:09;;;;;;;6.75;3.15;;;4.70;99.90;;;;;;4936283;29;20186;-76
2023/04/02 00:48:41;;;;;;;11.68;3.58;;;4.70;99.90;;;;;;4936551;29;20251;-72
2023/04/02 00:51:21;;;;;;;7.07;3.50;;;4.70;99.90;;;;;;4936191;29;20214;-73
2023/04/02 00:53:48;;;;;;;5.88;2.75;;;4.60;99.90;;;;;;4934546;29;20181;-73
2023/04/02 00:56:24;;;;;;;6.93;3.40;;;4.60;99.90;;;;;;4936433;29;20183;-77
2023/04/02 00:58:53;;;;;;;10.02;3.20;;;4.50;99.90;;;;;;4935399;29;20262;-73
2023/04/02 01:01:35;;;;;;;9.10;3.13;;;4.50;99.90;;;;;;4950356;29;20179;-74
2023/04/02 01:04:04;;;;;;;6.90;3.30;;;4.50;99.90;;;;;;4935808;29;20689;-74
2023/04/02 01:06:36;;;;;;;6.63;3.10;;;4.50;99.90;;;;;;4936019;29;20242;-74
2023/04/02 01:09:13;;;;;;;7.65;3.53;;;4.50;99.90;;;;;;4935879;29;20207;-77
2023/04/02 01:12:11;;;;;;;6.47;2.90;;;4.40;99.90;;;;;;4936053;29;20183;-73
2023/04/02 01:14:40;;;;;;;9.15;2.90;;;4.40;99.90;;;;;;4936331;29;20174;-73
2023/04/02 01:17:29;;;;;;;5.72;2.85;;;4.40;99.90;;;;;;4950712;28;20262;-73
2023/04/02 01:20:23;;;;;;;7.75;3.00;;;4.40;99.90;;;;;;4935609;29;20175;-76
2023/04/02 01:23:12;;;;;;;5.53;2.80;;;4.40;99.90;;;;;;4934130;29;20683;-74
2023/04/02 01:25:53;;;;;;;8.73;3.22;;;4.40;99.90;;;;;;4935547;29;20270;-75
2023/04/02 01:28:26;;;;;;;7.70;3.03;;;4.30;99.90;;;;;;4950657;29;20575;-74
2023/04/02 01:30:55;;;;;;;5.20;2.67;;;4.30;99.90;;;;;;4934315;29;20238;-75
2023/04/02 01:33:23;;;;;;;7.38;2.85;;;4.20;99.90;;;;;;4950398;29;20191;-77
2023/04/02 01:36:00;;;;;;;7.38;2.72;;;4.20;99.90;;;;;;4950215;28;20238;-78
2023/04/02 01:38:31;;;;;;;6.95;2.60;;;4.20;99.90;;;;;;4937746;29;20317;-76
2023/04/02 01:41:01;;;;;;;5.55;2.47;;;4.20;99.90;;;;;;4940146;29;20535;-73
2023/04/02 01:43:38;;;;;;;3.70;2.80;;;4.20;99.90;;;;;;4954144;29;20659;-74
2023/04/02 01:46:25;;;;;;;7.95;2.70;;;4.10;99.90;;;;;;4955013;29;20175;-74
2023/04/02 01:48:52;;;;;;;9.20;2.60;;;4.10;99.90;;;;;;4954188;29;20223;-77
2023/04/02 01:51:27;;;;;;;5.72;2.53;;;4.10;99.90;;;;;;4953678;29;20195;-74
2023/04/02 01:53:55;;;;;;;9.48;2.63;;;4.00;99.90;;;;;;4954240;29;20182;-75
2023/04/02 01:56:21;;;;;;;6.03;2.15;;;4.00;99.90;;;;;;4938110;29;20176;-75
2023/04/02 01:58:48;;;;;;;10.10;2.65;;;4.00;99.90;;;;;;4953749;29;20266;-75
2023/04/02 02:01:22;;;;;;;10.38;2.78;;;4.00;99.90;;;;;;4953835;29;20187;-73
2023/04/02 02:03:51;;;;;;;9.60;2.40;;;4.00;99.90;;;;;;4954043;29;20179;-75
2023/04/02 02:06:18;;;;;;;5.10;2.30;;;3.90;99.90;;;;;;4953732;29;20183;-75
2023/04/02 02:08:55;;;;;;;8.23;2.42;;;3.90;99.90;;;;;;4937510;29;20215;-74
2023/04/02 02:11:25;;;;;;;6.43;2.47;;;3.90;99.90;;;;;;4937683;29;20181;-77
2023/04/02 02:13:56;;;;;;;4.72;1.90;;;3.90;99.90;;;;;;4954279;29;20218;-74
2023/04/02 02:16:26;;;;;;;5.03;2.38;;;3.90;99.90;;;;;;4954004;29;20260;-77
2023/04/02 02:18:56;;;;;;;5.90;2.05;;;3.80;99.90;;;;;;4938943;29;20508;-75
2023/04/02 02:21:45;;;;;;;6.53;2.55;;;3.80;99.90;;;;;;4938698;29;20167;-76
2023/04/02 02:24:31;;;;;;;9.73;2.30;;;3.70;99.90;;;;;;4938814;29;20242;-75
2023/04/02 02:27:03;;;;;;;4.60;2.00;;;3.70;99.90;;;;;;4953691;29;20246;-77
2023/04/02 02:29:33;;;;;;;5.10;2.25;;;3.70;99.90;;;;;;4953736;29;20215;-76
2023/04/02 02:32:01;;;;;;;7.00;2.47;;;3.60;99.90;;;;;;4938996;29;20172;-75
2023/04/02 02:34:40;;;;;;;6.18;2.15;;;3.70;99.90;;;;;;4938369;29;20278;-75
2023/04/02 02:37:15;;;;;;;4.38;2.03;;;3.70;99.90;;;;;;4953633;29;20199;-76
2023/04/02 02:39:50;;;;;;;9.27;2.05;;;3.60;99.90;;;;;;4937538;29;20186;-77
2023/04/02 02:42:26;;;;;;;6.22;2.20;;;3.60;99.90;;;;;;4953501;28;20626;-78
2023/04/02 02:44:55;;;;;;;4.97;1.90;;;3.60;99.90;;;;;;4938265;29;20601;-84
2023/04/02 02:47:27;;;;;;;4.45;1.98;;;3.60;99.90;;;;;;4937102;29;20177;-76
2023/04/02 02:49:56;;;;;;;6.70;2.47;;;3.60;99.90;;;;;;4951984;28;20227;-83
2023/04/02 02:52:30;;;;;;;7.40;2.28;;;3.60;99.90;;;;;;4952835;29;20605;-77
2023/04/02 02:55:13;;;;;;;5.70;2.17;;;3.50;99.90;;;;;;4953306;29;20174;-75
2023/04/02 02:58:00;;;;;;;10.25;2.13;;;3.40;99.90;;;;;;4952788;29;20186;-77
2023/04/02 03:00:30;;;;;;;6.60;2.30;;;3.40;99.90;;;;;;4936662;29;20183;-77
2023/04/02 03:02:59;;;;;;;6.10;2.30;;;3.40;99.90;;;;;;4952539;29;20175;-76
2023/04/02 03:05:29;;;;;;;5.20;2.17;;;3.40;99.90;;;;;;4922088;29;20246;-74
2023/04/02 03:08:04;;;;;;;8.93;2.10;;;3.30;99.90;;;;;;4938394;29;20179;-75
2023/04/02 03:10:49;;;;;;;3.83;2.10;;;3.40;99.90;;;;;;4936891;29;20218;-77
2023/04/02 03:13:23;;;;;;;6.28;2.15;;;3.30;99.90;;;;;;4952672;29;20238;-74
2023/04/02 03:15:55;;;;;;;7.07;2.10;;;3.30;99.90;;;;;;4938422;29;20275;-79
2023/04/02 03:18:33;;;;;;;5.43;2.17;;;3.30;99.90;;;;;;4953031;28;20642;-76
2023/04/02 03:21:21;;;;;;;4.78;1.90;;;3.20;99.90;;;;;;4937278;29;20584;-77
2023/04/02 03:23:52;;;;;;;6.05;2.00;;;3.30;99.90;;;;;;4951770;29;20259;-74
2023/04/02 03:26:26;;;;;;;3.65;1.95;;;3.30;99.90;;;;;;4952693;29;20183;-74
2023/04/02 03:29:13;;;;;;;4.90;2.05;;;3.20;99.90;;;;;;4936963;29;20177;-77
2023/04/02 03:31:45;;;;;;;4.82;1.70;;;3.20;99.90;;;;;;4952943;29;20187;-74
2023/04/02 03:34:33;;;;;;;6.43;1.80;;;3.20;99.90;;;;;;4936527;29;20176;-73
2023/04/02 03:37:13;;;;;;;5.38;2.00;;;3.20;99.90;;;;;;4937404;29;20183;-73
2023/04/02 03:40:06;;;;;;;5.05;1.90;;;3.20;99.90;;;;;;4937004;29;20489;-73
2023/04/02 03:42:51;;;;;;;8.90;2.30;;;3.20;99.90;;;;;;4952677;29;20179;-80
2023/04/02 03:45:25;;;;;;;4.43;2.00;;;3.20;99.90;;;;;;4952137;29;20179;-73
2023/04/02 03:48:10;;;;;;;5.60;2.10;;;3.20;99.90;;;;;;4936219;29;20167;-74
2023/04/02 03:50:51;;;;;;;9.60;2.20;;;3.10;99.90;;;;;;4952033;29;20239;-79
2023/04/02 03:53:21;;;;;;;12.05;2.80;;;3.10;99.90;;;;;;4952327;29;20188;-75
2023/04/02 03:55:48;;;;;;;10.38;2.03;;;3.10;99.90;;;;;;4952215;29;20592;-74
2023/04/02 03:58:22;;;;;;;8.48;2.17;;;3.00;99.90;;;;;;4935926;29;20192;-73
2023/04/02 04:01:06;;;;;;;8.25;2.33;;;3.00;99.90;;;;;;4935695;29;20199;-77
2023/04/02 04:03:35;;;;;;;8.18;2.30;;;3.00;99.90;;;;;;4937462;29;20179;-75
2023/04/02 04:06:08;;;;;;;3.25;1.70;;;3.00;99.90;;;;;;4935612;29;20183;-73
2023/04/02 04:08:42;;;;;;;8.07;2.30;;;3.00;99.90;;;;;;4952265;29;20176;-76
2023/04/02 04:11:13;;;;;;;4.78;1.90;;;3.00;99.90;;;;;;4936836;29;20676;-74
2023/04/02 04:13:59;;;;;;;6.75;1.85;;;3.00;99.90;;;;;;4936074;29;20216;-77
2023/04/02 04:16:33;;;;;;;5.75;2.13;;;2.90;99.90;;;;;;4937107;29;20171;-73
2023/04/02 04:19:06;;;;;;;8.95;1.77;;;2.90;99.90;;;;;;4935426;29;20219;-75
2023/04/02 04:21:36;;;;;;;9.55;2.03;;;2.90;99.90;;;;;;4936121;29;20571;-77
2023/04/02 04:24:21;;;;;;;5.97;1.90;;;2.90;99.90;;;;;;4922163;29;20287;-78
2023/04/02 04:27:11;;;;;;;6.97;1.92;;;2.90;99.90;;;;;;4951463;28;20178;-72
2023/04/02 04:30:06;;;;;;;5.55;1.60;;;2.90;99.90;;;;;;4935208;29;20732;-76
2023/04/02 04:32:49;;;;;;;6.32;1.70;;;2.90;99.90;;;;;;4951540;29;20182;-75
2023/04/02 04:35:35;;;;;;;8.70;2.03;;;2.90;99.90;;;;;;4935628;29;20175;-75
2023/04/02 04:38:15;;;;;;;4.82;2.13;;;2.90;99.90;;;;;;4935434;28;20234;-74
2023/04/02 04:40:51;;;;;;;6.53;2.17;;;2.80;99.90;;;;;;4951770;28;20209;-75
2023/04/02 04:43:28;;;;;;;6.55;1.88;;;2.80;99.90;;;;;;4951397;29;20230;-76
2023/04/02 04:46:03;;;;;;;4.75;1.67;;;2.80;99.90;;;;;;4936054;29;20178;-77
2023/04/02 04:48:32;;;;;;;3.30;1.80;;;2.90;99.90;;;;;;4935567;29;20526;-78
2023/04/02 04:51:07;;;;;;;4.68;1.98;;;2.80;99.90;;;;;;4950348;29;20219;-74
2023/04/02 04:53:45;;;;;;;5.45;1.90;;;2.90;99.90;;;;;;4951587;28;20266;-74
2023/04/02 04:56:16;;;;;;;8.13;2.25;;;2.80;99.90;;;;;;4950952;29;20225;-78
2023/04/02 04:59:13;;;;;;;7.10;2.03;;;2.80;99.90;;;;;;4934477;29;20179;-78
2023/04/02 05:01:49;;;;;;;8.85;1.98;;;2.80;99.90;;;;;;4935883;29;20192;-74
2023/04/02 05:04:49;;;;;;;7.35;1.67;;;2.80;99.90;;;;;;4934963;29;20635;-75
2023/04/02 05:07:42;;;;;;;6.97;1.92;;;2.80;99.90;;;;;;4931983;29;20205;-76
2023/04/02 05:10:43;;;;;;;5.75;1.77;;;2.80;99.90;;;;;;4950293;29;20265;-78
2023/04/02 05:13:27;;;;;;;3.80;1.90;;;2.80;99.90;;;;;;4933912;29;20179;-74
2023/04/02 05:16:08;;;;;;;6.53;1.73;;;2.80;99.90;;;;;;4934667;29;20187;-75
2023/04/02 05:18:51;;;;;;;5.88;2.10;;;2.80;99.90;;;;;;4935996;29;20246;-76
2023/04/02 05:21:32;;;;;;;5.88;1.70;;;2.80;99.90;;;;;;4935048;29;20600;-74
2023/04/02 05:24:27;;;;;;;7.30;1.77;;;2.70;99.90;;;;;;4950988;29;20270;-76
2023/04/02 05:26:58;;;;;;;4.47;1.60;;;2.80;99.90;;;;;;4950587;29;20279;-75
2023/04/02 05:29:30;;;;;;;8.73;1.80;;;2.70;99.90;;;;;;4935829;29;20278;-74
2023/04/02 05:32:02;;;;;;;8.98;1.70;;;2.70;99.90;;;;;;4934862;29;20191;-74
2023/04/02 05:34:38;;;;;;;4.45;1.58;;;2.80;99.90;;;;;;4934504;29;20184;-73
2023/04/02 05:37:05;;;;;;;6.57;1.60;;;2.70;99.90;;;;;;4950783;28;20648;-74
2023/04/02 05:39:31;;;;;;;4.07;1.60;;;2.70;99.90;;;;;;4935757;29;20199;-73
2023/04/02 05:42:07;;;;;;;10.93;1.70;;;2.70;99.90;;;;;;4950140;29;20187;-73
2023/04/02 05:45:37;;;;;;;5.45;1.80;;;2.70;99.90;;;;;;4951118;29;20179;-73
2023/04/02 05:48:26;;;;;;;5.35;1.73;;;2.80;99.90;;;;;;4933343;29;20278;-74
2023/04/02 05:50:54;;;;;;;4.22;1.65;;;2.80;99.90;;;;;;4951051;29;20203;-73
2023/04/02 05:53:36;;;;;;;9.18;1.88;;;2.80;99.90;;;;;;4935137;29;20367;-75
2023/04/02 05:56:25;;;;;;;4.68;1.73;;;2.80;99.90;;;;;;4934969;29;20233;-73
2023/04/02 05:59:06;;;;;;;6.55;1.70;;;2.90;99.90;;;;;;4944326;28;20242;-75
2023/04/02 06:01:48;;;;;;;5.50;1.70;;;2.90;99.90;;;;;;4935268;29;20196;-77
2023/04/02 06:04:51;;;;;;;11.20;1.90;;;2.90;99.90;;;;;;4934530;29;20180;-73
2023/04/02 06:07:20;;;;;;;4.40;1.50;;;3.00;99.90;;;;;;4950858;29;20207;-77
2023/04/02 06:10:15;;;;;;;4.78;1.92;;;3.00;99.90;;;;;;4950147;29;20223;-77
2023/04/02 06:12:47;;;;;;;4.63;1.30;;;3.00;99.90;;;;;;4950613;29;20179;-75
2023/04/02 06:15:17;;;;;;;5.15;1.80;;;3.10;99.90;;;;;;4950306;29;20187;-74
2023/04/02 06:17:49;;;;;;;7.15;1.90;;;3.10;99.90;;;;;;4950710;29;20613;-77
2023/04/02 06:20:18;;;;;;;6.03;1.70;;;3.10;99.90;;;;;;4950585;29;20180;-76
2023/04/02 06:22:50;;;;;;;3.45;1.92;;;3.20;99.90;;;;;;4950133;29;20647;-77
2023/04/02 06:25:32;;;;;;;3.55;1.90;;;3.20;99.90;;;;;;4937075;29;20191;-75
2023/04/02 06:28:04;;;;;;;9.13;1.90;;;3.30;99.90;;;;;;4937904;29;20183;-81
2023/04/02 06:30:37;;;;;;;5.55;1.90;;;3.30;99.90;;;;;;4938736;29;20580;-74
2023/04/02 06:33:04;;;;;;;7.82;2.08;;;3.30;99.90;;;;;;4954152;29;20194;-74
2023/04/02 06:35:36;;;;;;;5.30;1.70;;;3.40;99.90;;;;;;4937726;29;20194;-75
2023/04/02 06:38:05;;;;;;;6.90;2.00;;;3.40;99.90;;;;;;4939104;29;20179;-74
2023/04/02 06:40:39;;;;;;;9.75;2.08;;;3.50;99.90;;;;;;4953882;29;20194;-74
2023/04/02 06:43:32;;;;;;;8.45;2.35;;;3.60;99.90;;;;;;4938220;29;20186;-74
2023/04/02 06:46:19;;;;;;;9.52;2.10;;;3.60;99.90;;;;;;4953839;29;20175;-73
2023/04/02 06:49:20;;;;;;;16.35;2.78;;;3.70;99.90;;;;;;4937959;29;20273;-74
2023/04/02 06:51:49;;;;;;;7.70;1.92;;;3.90;99.90;;;;;;4953277;28;20176;-73
2023/04/02 06:54:17;;;;;;;8.05;1.90;;;3.90;99.90;;;;;;4938718;29;20175;-73
2023/04/02 06:56:49;;;;;;;5.95;2.20;;;4.00;99.90;;;;;;4953635;29;20182;-75
2023/04/02 06:59:36;;;;;;;6.03;2.10;;;4.10;99.90;;;;;;4937211;29;20643;-73
2023/04/02 07:02:38;;;;;;;3.95;1.80;;;4.20;99.90;;;;;;4937208;29;20192;-75
2023/04/02 07:05:08;;;;;;;5.97;1.73;;;4.30;99.90;;;;;;4953510;29;20175;-75
2023/04/02 07:07:36;;;;;;;4.50;1.92;;;4.40;99.90;;;;;;4953851;29;20221;-81
2023/04/02 07:10:05;;;;;;;9.32;1.90;;;4.50;99.90;;;;;;4937162;29;20211;-77
2023/04/02 07:12:31;;;;;;;6.28;1.70;;;4.60;99.90;;;;;;4953076;29;20191;-77
2023/04/02 07:14:57;;;;;;;6.45;1.77;;;4.80;99.90;;;;;;4937105;29;20529;-74
2023/04/02 07:17:23;;;;;;;7.40;1.95;;;4.90;99.90;;;;;;4937712;29;20188;-74
2023/04/02 07:19:49;;;;;;;8.48;1.92;;;5.20;99.90;;;;;;4937560;29;20206;-74
2023/04/02 07:22:18;;;;;;;5.45;1.67;;;5.30;99.90;;;;;;4936596;29;20242;-73
2023/04/02 07:24:46;;;;;;;6.20;1.88;;;5.40;99.90;;;;;;4953048;28;20597;-74
2023/04/02 07:27:13;;;;;;;6.90;2.33;;;5.50;99.90;;;;;;4938746;29;20219;-75
2023/04/02 07:29:41;;;;;;;6.93;2.13;;;5.60;99.90;;;;;;4952598;29;20282;-76
2023/04/02 07:32:12;;;;;;;11.02;1.90;;;5.60;99.90;;;;;;4937703;29;20181;-76
2023/04/02 07:34:39;;;;;;;4.63;1.80;;;5.70;99.90;;;;;;4937533;29;20170;-73
2023/04/02 07:37:05;;;;;;;5.60;1.90;;;5.90;99.90;;;;;;4936703;29;20659;-74
2023/04/02 07:39:32;;;;;;;6.18;1.73;;;6.00;99.90;;;;;;4938010;29;20184;-72
2023/04/02 07:42:00;;;;;;;4.32;1.52;;;6.00;99.90;;;;;;4937462;29;20203;-74
2023/04/02 07:44:27;;;;;;;7.50;1.95;;;6.20;99.90;;;;;;4937001;29;20211;-73
2023/04/02 07:46:53;;;;;;;5.97;2.40;;;6.30;99.90;;;;;;4952302;29;20182;-74
2023/04/02 07:49:20;;;;;;;9.13;2.05;;;6.20;99.90;;;;;;4937507;29;20215;-73
2023/04/02 07:51:46;;;;;;;7.45;1.70;;;6.20;99.90;;;;;;4952301;29;20184;-74
2023/04/02 07:54:12;;;;;;;6.90;1.58;;;6.10;99.90;;;;;;4937292;29;20286;-73
2023/04/02 07:56:37;;;;;;;5.35;1.63;;;6.10;99.90;;;;;;4937917;29;20199;-74
2023/04/02 07:59:03;;;;;;;2.33;1.50;;;6.10;99.90;;;;;;4935828;29;20199;-73
2023/04/02 08:01:33;;;;;;;4.28;1.63;;;6.10;99.90;;;;;;4937201;29;20172;-73
2023/04/02 08:04:01;;;;;;;6.15;2.00;;;6.00;99.90;;;;;;4952515;29;20183;-73
2023/04/02 08:06:27;;;;;;;5.53;1.75;;;6.00;99.90;;;;;;4937477;29;20190;-74
2023/04/02 08:08:53;;;;;;;5.40;1.85;;;6.10;99.90;;;;;;4951550;29;20323;-73
2023/04/02 08:11:19;;;;;;;7.03;2.08;;;6.20;99.90;;;;;;4937218;29;20267;-74
2023/04/02 08:13:45;;;;;;;3.75;1.38;;;6.50;99.90;;;;;;4936998;29;20642;-73
2023/04/02 08:16:11;;;;;;;7.97;1.98;;;6.80;99.90;;;;;;4937124;29;20175;-73
2023/04/02 08:18:37;;;;;;;4.30;1.70;;;7.20;99.90;;;;;;4952262;29;20182;-73
2023/04/02 08:21:07;;;;;;;3.83;1.63;;;7.40;99.90;;;;;;4935772;29;20183;-73
2023/04/02 08:23:33;;;;;;;5.63;1.88;;;7.70;99.90;;;;;;4937329;29;20222;-73
2023/04/02 08:25:59;;;;;;;2.90;1.58;;;7.90;99.90;;;;;;4936734;29;20215;-73
2023/04/02 08:28:25;;;;;;;4.07;1.70;;;8.10;99.90;;;;;;4936942;29;20203;-76
2023/04/02 08:30:51;;;;;;;4.40;1.67;;;8.50;99.90;;;;;;4936800;29;20230;-73
2023/04/02 08:33:18;;;;;;;3.85;1.50;;;8.80;99.90;;;;;;4937091;29;20618;-73
2023/04/02 08:35:48;;;;;;;3.15;1.70;;;9.00;99.90;;;;;;4937149;29;20626;-73
2023/04/02 08:38:16;;;;;;;4.90;1.75;;;9.10;99.90;;;;;;4937370;29;20194;-73
2023/04/02 08:40:45;;;;;;;6.32;1.70;;;9.40;99.90;;;;;;4936697;29;20258;-73
2023/04/02 08:43:32;;;;;;;7.25;1.95;;;9.70;99.90;;;;;;4935325;29;20185;-73
2023/04/02 08:46:19;;;;;;;6.00;1.88;;;9.90;99.90;;;;;;4936451;29;20227;-73
2023/04/02 08:48:57;;;;;;;4.95;1.83;;;10.10;99.90;;;;;;4936659;29;20170;-74
2023/04/02 08:51:31;;;;;;;5.30;1.60;;;10.40;99.90;;;;;;4936659;29;20673;-76
2023/04/02 08:54:12;;;;;;;4.07;1.50;;;10.70;99.90;;;;;;4936210;29;20172;-73
2023/04/02 08:56:51;;;;;;;6.22;1.80;;;11.00;99.90;;;;;;4937225;29;20182;-74
2023/04/02 08:59:21;;;;;;;3.65;1.73;;;11.20;99.90;;;;;;4936461;29;20186;-72
2023/04/02 09:02:02;;;;;;;2.70;1.60;;;11.10;99.90;;;;;;4936115;29;20175;-72
2023/04/02 09:04:30;;;;;;;4.43;1.75;;;11.40;99.90;;;;;;4936223;29;20647;-72
2023/04/02 09:06:58;;;;;;;6.25;1.48;;;11.70;99.90;;;;;;4936701;29;20226;-72
2023/04/02 09:09:24;;;;;;;5.55;1.45;;;12.00;99.90;;;;;;4934949;29;20664;-75
2023/04/02 09:11:59;;;;;;;4.88;1.55;;;12.20;99.90;;;;;;4936758;29;20183;-74
2023/04/02 09:15:09;;;;;;;6.38;1.65;;;12.50;99.90;;;;;;4936340;29;20187;-73
2023/04/02 09:17:36;;;;;;;4.20;1.40;;;12.70;99.90;;;;;;4930967;29;20203;-72
2023/04/02 09:20:17;;;;;;;4.57;1.80;;;12.70;99.70;;;;;;4936193;29;20623;-72
2023/04/02 09:22:45;;;;;;;5.47;1.67;;;12.80;99.60;;;;;;4936367;29;20230;-72
2023/04/02 09:25:16;;;;;;;3.55;1.70;;;12.90;99.20;;;;;;4950852;29;20539;-72
2023/04/02 09:27:50;;;;;;;8.20;1.77;;;13.20;98.40;;;;;;4950754;29;20184;-72
2023/04/02 09:30:28;;;;;;;2.83;1.45;;;13.30;97.40;;;;;;4936302;29;20215;-72
2023/04/02 09:33:07;;;;;;;5.38;1.65;;;13.10;95.40;;;;;;4935164;29;20596;-73
2023/04/02 09:35:54;;;;;;;5.78;1.60;;;12.70;95.00;;;;;;4951690;29;20181;-72
2023/04/02 09:38:21;;;;;;;6.63;1.50;;;12.80;95.90;;;;;;4951207;29;20200;-72
2023/04/02 09:41:00;;;;;;;5.20;1.50;;;12.70;95.20;;;;;;4935839;29;20187;-72
2023/04/02 09:43:31;;;;;;;3.47;1.25;;;12.70;95.10;;;;;;4935983;29;20194;-72
2023/04/02 09:46:19;;;;;;;3.67;1.30;;;12.80;95.50;;;;;;4935998;29;20255;-71
2023/04/02 09:48:54;;;;;;;3.88;1.55;;;12.90;95.10;;;;;;4932070;29;20715;-72
2023/04/02 09:51:22;;;;;;;4.20;1.45;;;13.00;95.10;;;;;;4936040;29;20200;-72
2023/04/02 09:54:15;;;;;;;2.50;1.20;;;13.10;95.00;;;;;;4936007;29;20193;-72
2023/04/02 09:57:02;;;;;;;2.78;1.33;;;13.30;95.00;;;;;;4933362;29;20239;-73
2023/04/02 09:59:28;;;;;;;2.58;1.00;;;13.30;93.60;;;;;;4951953;28;20182;-72
2023/04/02 10:01:53;;;;;;;4.57;1.40;;;13.40;94.40;;;;;;4939563;29;20210;-76
2023/04/02 10:04:37;;;;;;;3.55;1.58;;;13.40;94.20;;;;;;4939379;29;20589;-72
2023/04/02 10:07:05;;;;;;;5.32;1.50;;;13.40;93.60;;;;;;4939279;29;20183;-73
2023/04/02 10:09:37;;;;;;;4.45;1.35;;;13.30;92.70;;;;;;4953808;29;20281;-73
2023/04/02 10:12:11;;;;;;;3.63;1.30;;;13.10;92.10;;;;;;4939021;29;20178;-73
2023/04/02 10:14:42;;;;;;;4.68;1.23;;;13.10;93.00;;;;;;4939877;29;20572;-72
2023/04/02 10:17:22;;;;;;;7.43;1.52;;;13.10;93.10;;;;;;4938775;29;20172;-76
2023/04/02 10:19:52;;;;;;;4.68;1.48;;;13.20;93.30;;;;;;4938827;29;20234;-75
2023/04/02 10:22:21;;;;;;;4.63;1.00;;;13.20;93.00;;;;;;4938524;29;20219;-73
2023/04/02 10:24:47;;;;;;;6.20;1.38;;;13.30;92.60;;;;;;4939451;29;20234;-73
2023/04/02 10:27:21;;;;;;;2.42;0.90;;;13.30;92.60;;;;;;4939069;29;20265;-73
2023/04/02 10:29:46;;;;;;;3.22;1.08;;;13.30;91.80;;;;;;4938842;29;20274;-73
2023/04/02 10:32:18;;;;;;;2.80;1.30;;;13.10;92.10;;;;;;4938559;29;20581;-73
2023/04/02 10:35:03;;;;;;;3.83;1.52;;;13.10;93.00;;;;;;4953981;29;20553;-73
2023/04/02 10:37:53;;;;;;;4.00;1.20;;;13.20;92.60;;;;;;4937601;29;20182;-73
2023/04/02 10:40:33;;;;;;;5.32;1.35;;;13.30;92.60;;;;;;4938478;29;20258;-73
2023/04/02 10:43:36;;;;;;;3.88;1.27;;;13.30;92.30;;;;;;4938439;29;20168;-73
2023/04/02 10:46:35;;;;;;;4.50;1.02;;;13.30;91.80;;;;;;4938475;29;20197;-74
2023/04/02 10:49:04;;;;;;;4.35;1.40;;;13.30;91.30;;;;;;4953410;29;20227;-72
2023/04/02 10:51:45;;;;;;;1.85;0.95;;;13.30;91.60;;;;;;4937960;29;20269;-73
2023/04/02 10:54:35;;;;;;;1.90;0.98;;;13.40;91.30;;;;;;4953927;29;20180;-75
2023/04/02 10:57:08;;;;;;;6.70;1.60;;;13.30;90.60;;;;;;4938412;29;20216;-74
2023/04/02 10:59:37;;;;;;;3.55;0.90;;;13.20;91.00;;;;;;4938948;29;20507;-74
2023/04/02 11:02:21;;;;;;;3.58;1.10;;;13.00;88.70;;;;;;4952899;29;20534;-75
2023/04/02 11:04:47;;;;;;;4.35;1.00;;;12.90;89.80;;;;;;4938230;29;20510;-75
2023/04/02 11:07:19;;;;;;;2.80;1.10;;;12.80;89.00;;;;;;4938792;29;20175;-74
2023/04/02 11:09:49;;;;;;;3.55;1.00;;;12.70;89.80;;;;;;4937973;29;20632;-74
2023/04/02 11:12:28;;;;;;;3.13;0.90;;;12.70;89.50;;;;;;4936922;29;20207;-74
2023/04/02 11:14:55;;;;;;;2.38;1.23;;;12.70;90.30;;;;;;4938124;29;20303;-74
2023/04/02 11:17:22;;;;;;;7.25;1.17;;;12.80;90.70;;;;;;4938279;29;20184;-73
2023/04/02 11:19:47;;;;;;;3.40;0.90;;;12.90;91.00;;;;;;4938094;29;20191;-74
2023/04/02 11:22:15;;;;;;;5.18;1.08;;;13.00;90.70;;;;;;4936282;29;20660;-74
2023/04/02 11:24:53;;;;;;;2.40;1.10;;;13.00;90.20;;;;;;4937717;29;20160;-73
2023/04/02 11:27:24;;;;;;;3.38;1.10;;;13.00;90.00;;;;;;4937669;29;20184;-73
2023/04/02 11:30:24;;;;;;;2.85;1.20;;;13.00;90.20;;;;;;4937685;29;20678;-73
2023/04/02 11:32:50;;;;;;;4.15;1.10;;;13.10;90.00;;;;;;4936044;29;20254;-74
2023/04/02 11:35:30;;;;;;;3.22;1.10;;;13.00;88.70;;;;;;4937775;29;20175;-73
2023/04/02 11:38:03;;;;;;;3.72;1.10;;;13.00;88.50;;;;;;4951958;29;20188;-73
2023/04/02 11:40:47;;;;;;;2.92;1.00;;;12.90;89.10;;;;;;4937323;29;20592;-74
2023/04/02 11:43:31;;;;;;;2.50;0.90;;;12.90;87.70;;;;;;4937164;29;20230;-73
2023/04/02 11:46:17;;;;;;;2.90;0.85;;;12.90;88.40;;;;;;4952125;29;20187;-74
2023/04/02 11:48:44;;;;;;;2.85;1.17;;;13.00;88.40;;;;;;4945597;28;20202;-74
2023/04/02 11:51:21;;;;;;;2.17;1.10;;;13.00;88.50;;;;;;4936993;29;20231;-73
2023/04/02 11:53:52;;;;;;;3.67;1.30;;;13.10;88.10;;;;;;4951528;29;20704;-74
2023/04/02 11:56:34;;;;;;;2.42;1.00;;;13.10;88.50;;;;;;4937654;29;20210;-73
2023/04/02 11:59:47;;;;;;;2.75;1.83;;;13.10;87.80;;;;;;4937664;29;20227;-73
2023/04/02 12:02:40;;;;;;;3.20;0.90;;;13.10;87.30;;;;;;4937056;29;20250;-74
2023/04/02 12:05:24;;;;;;;1.83;1.00;;;13.10;87.30;;;;;;4937568;29;20219;-73
2023/04/02 12:08:04;;;;;;;2.15;0.90;;;13.10;87.50;;;;;;4937066;29;20175;-73
2023/04/02 12:10:53;;;;;;;4.13;1.10;;;13.00;85.10;;;;;;4936795;29;20210;-73
2023/04/02 12:13:20;;;;;;;2.35;1.30;;;12.80;85.40;;;;;;4951762;29;20703;-73
2023/04/02 12:15:48;;;;;;;4.28;1.23;;;12.70;87.40;;;;;;4935359;29;20180;-73
2023/04/02 12:18:20;;;;;;;2.50;1.20;;;12.70;86.60;;;;;;4935518;29;20183;-74
2023/04/02 12:20:51;;;;;;;3.05;1.20;;;12.70;88.10;;;;;;4937146;29;20175;-73
2023/04/02 12:23:36;;;;;;;2.50;1.02;;;12.70;88.10;;;;;;4936592;29;20219;-73
2023/04/02 12:26:25;;;;;;;1.65;1.20;;;12.80;88.50;;;;;;4951633;29;20271;-74
2023/04/02 12:28:51;;;;;;;1.90;0.82;;;12.80;84.60;;;;;;4936675;29;20195;-74
2023/04/02 12:31:24;;;;;;;4.38;1.30;;;12.70;86.30;;;;;;4936580;29;20199;-73
2023/04/02 12:33:52;;;;;;;3.08;0.90;;;12.40;86.20;;;;;;4951076;29;20235;-73
2023/04/02 12:36:21;;;;;;;6.00;1.00;;;12.30;88.50;;;;;;4935287;29;20195;-73
2023/04/02 12:38:56;;;;;;;6.40;1.10;;;12.40;88.80;;;;;;4936246;29;20187;-73
2023/04/02 12:41:35;;;;;;;3.00;1.00;;;12.40;86.80;;;;;;4936022;29;20274;-73
2023/04/02 12:44:05;;;;;;;2.88;1.20;;;12.20;85.80;;;;;;4936898;29;20226;-73
2023/04/02 12:46:33;;;;;;;4.35;1.13;;;12.20;87.30;;;;;;4936745;29;20233;-73
2023/04/02 12:49:05;;;;;;;2.35;1.23;;;12.20;88.50;;;;;;4936215;29;20230;-73
2023/04/02 12:51:32;;;;;;;9.18;0.90;;;12.30;88.20;;;;;;4950850;29;20172;-73
2023/04/02 12:53:58;;;;;;;2.30;1.10;;;12.40;88.50;;;;;;4936061;29;20542;-74
2023/04/02 12:56:24;;;;;;;5.28;0.93;;;12.40;88.00;;;;;;4936827;29;20186;-73
2023/04/02 12:58:55;;;;;;;5.38;1.20;;;12.40;88.30;;;;;;4936195;29;20184;-73
2023/04/02 13:01:26;;;;;;;2.97;1.10;;;12.50;87.70;;;;;;4936260;29;20662;-73
2023/04/02 13:04:18;;;;;;;2.40;1.08;;;12.50;87.80;;;;;;4936036;29;20172;-73
2023/04/02 13:06:59;;;;;;;3.10;1.08;;;12.50;88.30;;;;;;4933688;29;20199;-76
2023/04/02 13:09:35;;;;;;;2.67;1.45;;;12.50;87.00;;;;;;4934967;29;20266;-74
2023/04/02 13:12:02;;;;;;;3.03;1.30;;;12.50;85.60;;;;;;4936842;29;20202;-73
2023/04/02 13:14:28;;;;;;;1.98;1.10;;;12.50;86.20;;;;;;4935856;29;20187;-73
2023/04/02 13:16:55;;;;;;;3.00;1.20;;;12.40;86.00;;;;;;4935761;29;20175;-73
2023/04/02 13:19:32;;;;;;;4.50;1.20;;;12.40;87.80;;;;;;4935024;29;20183;-73
2023/04/02 13:22:00;;;;;;;5.57;1.10;;;12.40;88.90;;;;;;4935585;29;20181;-73
2023/04/02 13:24:28;;;;;;;2.53;1.13;;;12.40;89.50;;;;;;4936317;29;20526;-74
2023/04/02 13:26:58;;;;;;;2.15;1.17;;;12.40;89.60;;;;;;4935820;29;20234;-73
2023/04/02 13:29:25;;;;;;;2.28;1.08;;;12.30;89.60;;;;;;4935690;29;20211;-73
2023/04/02 13:31:53;;;;;;;2.70;1.20;;;12.30;90.20;;;;;;4935915;29;20179;-74
2023/04/02 13:34:19;;;;;;;3.22;1.13;;;12.30;90.50;;;;;;4951580;28;20183;-74